Time;durP1;ratioP1;P1;durP2;ratioP2;P2;SDS_P1;SDS_P2;PMS_P1;PMS_P2;Temp;Humidity;BMP_temperature;BMP_pressure;BME280_temperature;BME280_humidity;BME280_pressure;Samples;Min_cycle;Max_cycle;Signal;HPM_P1;HPM_P2
2021/04/04 00:00:50;;;;;;;7.32;1.50;;;1.70;99.90;;;;;;4952511;29;20075;-67
2021/04/04 00:03:16;;;;;;;8.32;1.95;;;1.60;99.90;;;;;;4952142;29;20050;-67
2021/04/04 00:05:43;;;;;;;7.22;1.70;;;1.60;99.90;;;;;;4944952;28;20055;-67
2021/04/04 00:08:09;;;;;;;8.40;1.70;;;1.50;99.90;;;;;;4952612;29;20047;-67
2021/04/04 00:10:36;;;;;;;5.50;1.42;;;1.60;99.90;;;;;;4952273;29;20051;-67
2021/04/04 00:13:03;;;;;;;5.40;1.67;;;1.50;99.90;;;;;;4951574;28;20047;-67
2021/04/04 00:15:30;;;;;;;7.72;1.90;;;1.50;99.90;;;;;;4921401;29;20055;-67
2021/04/04 00:17:56;;;;;;;7.13;1.42;;;1.50;99.90;;;;;;4944874;29;20035;-67
2021/04/04 00:20:23;;;;;;;9.35;1.73;;;1.50;99.90;;;;;;4952625;28;20047;-67
2021/04/04 00:22:49;;;;;;;8.48;1.77;;;1.50;99.90;;;;;;4919348;29;20098;-68
2021/04/04 00:25:16;;;;;;;7.57;1.88;;;1.50;99.90;;;;;;4947388;28;20050;-67
2021/04/04 00:27:43;;;;;;;8.88;2.20;;;1.40;99.90;;;;;;4953675;28;20047;-67
2021/04/04 00:30:11;;;;;;;4.72;1.90;;;1.20;99.90;;;;;;4935291;29;20047;-67
2021/04/04 00:32:39;;;;;;;7.00;2.10;;;1.10;99.90;;;;;;4947938;29;20453;-68
2021/04/04 00:35:22;;;;;;;6.72;2.13;;;1.10;99.90;;;;;;4939805;29;20051;-68
2021/04/04 00:37:50;;;;;;;6.05;1.73;;;0.90;99.90;;;;;;4947821;29;20567;-67
2021/04/04 00:40:24;;;;;;;9.93;1.75;;;0.80;99.90;;;;;;4949205;28;20047;-67
2021/04/04 00:42:51;;;;;;;7.85;1.88;;;0.90;99.90;;;;;;4952367;29;20070;-68
2021/04/04 00:45:20;;;;;;;13.30;1.60;;;1.00;99.90;;;;;;4947434;28;20559;-67
2021/04/04 00:47:48;;;;;;;6.07;1.60;;;1.10;99.90;;;;;;4945050;29;20047;-67
2021/04/04 00:50:15;;;;;;;6.55;1.67;;;1.30;99.90;;;;;;4936286;29;20504;-67
2021/04/04 00:52:45;;;;;;;4.95;1.55;;;1.40;99.90;;;;;;4951048;29;20047;-67
2021/04/04 00:55:13;;;;;;;10.43;1.77;;;1.30;99.90;;;;;;4934888;29;20044;-67
2021/04/04 00:57:42;;;;;;;4.32;1.58;;;1.20;99.90;;;;;;4934425;29;20083;-68
2021/04/04 01:00:13;;;;;;;6.80;1.65;;;1.10;99.90;;;;;;4953607;28;20035;-67
2021/04/04 01:02:41;;;;;;;7.70;1.80;;;1.00;99.90;;;;;;4963749;28;20070;-67
2021/04/04 01:05:23;;;;;;;5.00;1.50;;;1.10;99.90;;;;;;4950980;28;20043;-67
2021/04/04 01:07:50;;;;;;;6.95;1.90;;;1.10;99.90;;;;;;4951488;29;20071;-67
2021/04/04 01:10:17;;;;;;;8.65;2.10;;;1.00;99.90;;;;;;4949491;29;20063;-68
2021/04/04 01:13:01;;;;;;;6.68;1.95;;;0.90;99.90;;;;;;4950707;29;20043;-67
2021/04/04 01:15:37;;;;;;;9.02;1.80;;;0.90;99.90;;;;;;4951138;28;20075;-67
2021/04/04 01:18:12;;;;;;;9.45;1.92;;;0.90;99.90;;;;;;4933487;29;20423;-67
2021/04/04 01:20:46;;;;;;;11.40;2.00;;;0.90;99.90;;;;;;4942400;29;20047;-67
2021/04/04 01:23:25;;;;;;;7.82;1.80;;;0.90;99.90;;;;;;4950855;28;20118;-67
2021/04/04 01:26:08;;;;;;;5.55;1.60;;;0.90;99.90;;;;;;4950925;28;20058;-67
2021/04/04 01:28:38;;;;;;;9.65;2.65;;;0.90;99.90;;;;;;4954616;29;20046;-67
2021/04/04 01:31:07;;;;;;;4.18;1.25;;;0.90;99.90;;;;;;4954101;29;20476;-67
2021/04/04 01:33:35;;;;;;;5.85;1.60;;;0.90;99.90;;;;;;4954904;29;20114;-68
2021/04/04 01:36:04;;;;;;;6.65;2.20;;;0.80;99.90;;;;;;4954362;28;20035;-67
2021/04/04 01:38:33;;;;;;;10.80;1.48;;;0.80;99.90;;;;;;4949034;29;20103;-67
2021/04/04 01:41:09;;;;;;;5.63;1.60;;;0.80;99.90;;;;;;4951883;29;20072;-68
2021/04/04 01:43:36;;;;;;;8.93;1.48;;;0.90;99.90;;;;;;4953976;29;20131;-67
2021/04/04 01:46:03;;;;;;;12.38;3.13;;;0.90;99.90;;;;;;4953426;28;20051;-67
2021/04/04 01:48:30;;;;;;;7.18;1.80;;;0.80;99.90;;;;;;4952963;29;20047;-67
2021/04/04 01:50:59;;;;;;;8.63;2.25;;;0.80;99.90;;;;;;4951981;28;20035;-67
2021/04/04 01:53:25;;;;;;;9.55;2.30;;;0.70;99.90;;;;;;4936517;29;20098;-68
2021/04/04 01:55:52;;;;;;;5.95;1.60;;;0.60;99.90;;;;;;4954120;28;20464;-67
2021/04/04 01:58:19;;;;;;;7.93;1.70;;;0.50;99.90;;;;;;4949158;29;20043;-67
2021/04/04 02:00:46;;;;;;;8.25;2.17;;;0.50;99.90;;;;;;4953296;29;20476;-67
2021/04/04 02:03:14;;;;;;;6.97;1.75;;;0.60;99.90;;;;;;4950805;28;20082;-67
2021/04/04 02:05:42;;;;;;;8.40;2.20;;;0.60;99.90;;;;;;4952963;28;20051;-68
2021/04/04 02:08:12;;;;;;;6.75;1.65;;;0.70;99.90;;;;;;4954216;29;20100;-67
2021/04/04 02:10:39;;;;;;;4.60;1.67;;;0.70;99.90;;;;;;4953541;29;20113;-67
2021/04/04 02:13:07;;;;;;;4.82;1.90;;;0.70;99.90;;;;;;4953164;29;20086;-68
2021/04/04 02:15:36;;;;;;;6.78;1.80;;;0.60;99.90;;;;;;4952511;28;20055;-68
2021/04/04 02:18:05;;;;;;;8.48;2.13;;;0.60;99.90;;;;;;4954623;29;20052;-68
2021/04/04 02:20:33;;;;;;;4.63;1.60;;;0.50;99.90;;;;;;4936589;29;20047;-67
2021/04/04 02:23:04;;;;;;;9.75;1.90;;;0.40;99.90;;;;;;4953890;29;20047;-67
2021/04/04 02:25:31;;;;;;;10.13;2.00;;;0.40;99.90;;;;;;4952500;28;20059;-68
2021/04/04 02:27:57;;;;;;;6.60;2.03;;;0.40;99.90;;;;;;4952603;29;20346;-67
2021/04/04 02:30:24;;;;;;;6.57;2.05;;;0.40;99.90;;;;;;4951618;29;20054;-67
2021/04/04 02:33:02;;;;;;;6.97;2.05;;;0.40;99.90;;;;;;4953126;29;20047;-67
2021/04/04 02:35:33;;;;;;;5.50;1.33;;;0.40;99.90;;;;;;4935888;29;20169;-67
2021/04/04 02:38:02;;;;;;;5.63;1.60;;;0.40;99.90;;;;;;4953073;29;20039;-67
2021/04/04 02:40:32;;;;;;;4.60;1.58;;;0.40;99.90;;;;;;4935937;29;20047;-66
2021/04/04 02:42:59;;;;;;;6.20;2.08;;;0.40;99.90;;;;;;4949481;28;20051;-67
2021/04/04 02:45:27;;;;;;;6.10;1.95;;;0.40;99.90;;;;;;4952171;28;20055;-67
2021/04/04 02:48:05;;;;;;;8.02;2.10;;;0.30;99.90;;;;;;4952564;28;20050;-67
2021/04/04 02:50:34;;;;;;;6.15;1.83;;;0.30;99.90;;;;;;4938725;29;20460;-66
2021/04/04 02:53:02;;;;;;;9.73;1.98;;;0.30;99.90;;;;;;4948534;28;20075;-67
2021/04/04 02:55:31;;;;;;;7.43;1.98;;;0.20;99.90;;;;;;4949249;29;20043;-66
2021/04/04 02:57:59;;;;;;;7.10;2.30;;;0.20;99.90;;;;;;4950096;29;20361;-66
2021/04/04 03:00:26;;;;;;;7.32;1.85;;;0.10;99.90;;;;;;4951643;28;20050;-67
2021/04/04 03:02:54;;;;;;;6.85;1.60;;;0.10;99.90;;;;;;4950957;28;20062;-67
2021/04/04 03:05:24;;;;;;;6.40;1.80;;;0.20;99.90;;;;;;4951897;28;20047;-67
2021/04/04 03:07:54;;;;;;;5.53;1.75;;;0.20;99.90;;;;;;4951926;29;20075;-67
2021/04/04 03:10:20;;;;;;;10.98;2.20;;;0.20;99.90;;;;;;4930982;29;20102;-67
2021/04/04 03:12:49;;;;;;;4.45;1.73;;;0.20;99.90;;;;;;4932410;29;20047;-67
2021/04/04 03:15:17;;;;;;;4.10;1.50;;;0.20;99.90;;;;;;4947985;28;20107;-67
2021/04/04 03:17:45;;;;;;;5.53;1.38;;;0.20;99.90;;;;;;4948226;29;20106;-67
2021/04/04 03:20:13;;;;;;;8.75;2.13;;;0.20;99.90;;;;;;4934981;29;20117;-67
2021/04/04 03:22:42;;;;;;;7.55;1.65;;;0.10;99.90;;;;;;4952123;29;20043;-67
2021/04/04 03:25:10;;;;;;;6.18;1.58;;;0.10;99.90;;;;;;4935447;29;20047;-67
2021/04/04 03:27:39;;;;;;;4.43;1.63;;;0.10;99.90;;;;;;4934056;29;20051;-67
2021/04/04 03:30:07;;;;;;;8.02;1.60;;;0.10;99.90;;;;;;4951146;29;20047;-68
2021/04/04 03:32:37;;;;;;;7.10;1.70;;;0.10;99.90;;;;;;4951564;29;20055;-68
2021/04/04 03:35:05;;;;;;;7.00;1.70;;;0.00;99.90;;;;;;4950557;28;20075;-67
2021/04/04 03:37:32;;;;;;;6.13;1.80;;;0.00;99.90;;;;;;4951908;29;20071;-67
2021/04/04 03:39:59;;;;;;;7.50;2.40;;;-0.10;99.90;;;;;;4951466;29;20473;-67
2021/04/04 03:42:27;;;;;;;7.53;1.90;;;-0.20;99.90;;;;;;4951235;29;20047;-67
2021/04/04 03:44:59;;;;;;;5.53;2.30;;;-0.20;99.90;;;;;;4950443;28;20130;-68
2021/04/04 03:47:26;;;;;;;13.05;2.50;;;-0.30;99.90;;;;;;4950645;28;20035;-67
2021/04/04 03:49:53;;;;;;;5.55;1.80;;;-0.20;99.90;;;;;;4949800;29;20129;-67
2021/04/04 03:52:21;;;;;;;6.90;1.58;;;-0.20;99.90;;;;;;4952507;29;20047;-68
2021/04/04 03:54:49;;;;;;;6.57;2.05;;;-0.20;99.90;;;;;;4949665;28;20043;-67
2021/04/04 03:57:16;;;;;;;9.10;2.03;;;-0.20;99.90;;;;;;4951075;29;20047;-67
2021/04/04 03:59:43;;;;;;;4.47;1.77;;;-0.20;99.90;;;;;;4949540;29;20169;-67
2021/04/04 04:02:10;;;;;;;4.55;1.50;;;-0.30;99.90;;;;;;4950849;29;20046;-67
2021/04/04 04:04:37;;;;;;;7.82;1.58;;;-0.30;99.90;;;;;;4933887;28;20138;-67
2021/04/04 04:07:06;;;;;;;10.02;1.58;;;-0.30;99.90;;;;;;4951111;29;20067;-68
2021/04/04 04:09:33;;;;;;;10.75;1.73;;;-0.30;99.90;;;;;;4950067;29;20043;-67
2021/04/04 04:12:01;;;;;;;7.10;1.70;;;-0.40;99.90;;;;;;4950594;29;20043;-66
2021/04/04 04:14:30;;;;;;;6.43;2.30;;;-0.30;99.90;;;;;;4934450;28;20118;-66
2021/04/04 04:16:57;;;;;;;5.82;1.98;;;-0.30;99.90;;;;;;4932614;29;20047;-67
2021/04/04 04:19:24;;;;;;;7.38;2.22;;;-0.30;99.90;;;;;;4952600;28;20047;-66
2021/04/04 04:21:50;;;;;;;10.57;2.42;;;-0.40;99.90;;;;;;4949486;29;20047;-67
2021/04/04 04:24:19;;;;;;;7.45;2.53;;;-0.40;99.90;;;;;;4929302;29;20049;-67
2021/04/04 04:26:47;;;;;;;9.07;2.53;;;-0.40;99.90;;;;;;4932255;29;20500;-67
2021/04/04 04:29:15;;;;;;;13.13;3.50;;;-0.50;99.90;;;;;;4950643;29;20035;-67
2021/04/04 04:31:47;;;;;;;10.52;2.88;;;-0.60;99.90;;;;;;4951502;29;20047;-67
2021/04/04 04:34:15;;;;;;;7.55;2.22;;;-0.60;99.90;;;;;;4950780;29;20035;-66
2021/04/04 04:36:42;;;;;;;6.55;2.13;;;-0.60;99.90;;;;;;4951256;28;20043;-66
2021/04/04 04:39:10;;;;;;;9.48;2.45;;;-0.70;99.90;;;;;;4951989;28;20519;-67
2021/04/04 04:41:46;;;;;;;10.73;2.88;;;-0.60;99.90;;;;;;4951935;28;20062;-68
2021/04/04 04:44:21;;;;;;;11.68;2.90;;;-0.60;99.90;;;;;;4949986;29;20036;-67
2021/04/04 04:46:49;;;;;;;11.52;3.25;;;-0.50;99.90;;;;;;4951701;29;20043;-67
2021/04/04 04:49:16;;;;;;;8.45;3.22;;;-0.40;99.90;;;;;;4949931;28;20039;-68
2021/04/04 04:51:46;;;;;;;10.32;3.60;;;-0.30;99.90;;;;;;4949836;29;20567;-67
2021/04/04 04:54:13;;;;;;;11.00;3.53;;;-0.30;99.90;;;;;;4949062;29;20043;-67
2021/04/04 04:56:40;;;;;;;12.57;3.90;;;-0.30;99.90;;;;;;4934052;29;20391;-67
2021/04/04 04:59:08;;;;;;;11.55;3.38;;;-0.20;99.90;;;;;;4950263;28;21321;-68
2021/04/04 05:01:38;;;;;;;11.77;3.58;;;-0.20;99.90;;;;;;4954125;28;20459;-67
2021/04/04 05:04:06;;;;;;;16.90;4.45;;;-0.20;99.90;;;;;;4936061;29;20476;-66
2021/04/04 05:06:32;;;;;;;13.77;4.50;;;-0.20;99.90;;;;;;4954949;28;20044;-66
2021/04/04 05:09:00;;;;;;;10.90;4.10;;;-0.30;99.90;;;;;;4954659;29;20095;-66
2021/04/04 05:11:27;;;;;;;14.23;4.47;;;-0.30;99.90;;;;;;4955163;28;20094;-67
2021/04/04 05:13:54;;;;;;;16.23;5.80;;;-0.20;99.90;;;;;;4932058;29;20389;-66
2021/04/04 05:16:21;;;;;;;15.60;5.57;;;-0.10;99.90;;;;;;4921957;29;20122;-66
2021/04/04 05:18:51;;;;;;;21.02;6.35;;;-0.10;99.90;;;;;;4953407;28;20063;-66
2021/04/04 05:21:25;;;;;;;22.13;6.53;;;0.00;99.90;;;;;;4950710;29;20106;-66
2021/04/04 05:24:00;;;;;;;18.48;6.57;;;0.00;99.90;;;;;;4953453;29;20043;-66
2021/04/04 05:26:38;;;;;;;24.27;6.93;;;0.00;99.90;;;;;;4952464;29;20047;-66
2021/04/04 05:29:07;;;;;;;19.35;7.35;;;-0.10;99.90;;;;;;4953398;29;20057;-66
2021/04/04 05:31:34;;;;;;;18.65;7.60;;;-0.10;99.90;;;;;;4953144;29;20135;-67
2021/04/04 05:34:00;;;;;;;22.95;7.03;;;0.00;99.90;;;;;;4952955;29;20217;-66
2021/04/04 05:36:27;;;;;;;21.70;8.43;;;-0.10;99.90;;;;;;4954893;28;20047;-66
2021/04/04 05:38:58;;;;;;;25.98;7.93;;;0.00;99.90;;;;;;4951918;29;20685;-67
2021/04/04 05:41:28;;;;;;;26.75;8.48;;;0.20;99.90;;;;;;4953498;28;20054;-67
2021/04/04 05:44:02;;;;;;;26.33;7.97;;;0.30;99.90;;;;;;4951338;29;20051;-67
2021/04/04 05:46:36;;;;;;;25.40;9.95;;;0.40;99.90;;;;;;4952291;28;20062;-66
2021/04/04 05:49:22;;;;;;;23.50;8.95;;;0.40;99.90;;;;;;4954621;29;20042;-67
2021/04/04 05:51:58;;;;;;;23.67;9.20;;;0.40;99.90;;;;;;4951999;29;20460;-67
2021/04/04 05:54:58;;;;;;;27.90;8.75;;;0.40;99.90;;;;;;4936323;28;20106;-66
2021/04/04 05:57:33;;;;;;;28.40;9.77;;;0.40;99.90;;;;;;4954694;29;20371;-66
2021/04/04 06:00:08;;;;;;;21.15;7.97;;;0.30;99.90;;;;;;4952253;29;20439;-66
2021/04/04 06:03:02;;;;;;;24.33;7.72;;;0.30;99.90;;;;;;4935234;29;20091;-67
2021/04/04 06:06:08;;;;;;;16.58;8.07;;;0.30;99.90;;;;;;4923864;29;20043;-66
2021/04/04 06:08:58;;;;;;;26.27;9.25;;;0.40;99.90;;;;;;4952971;29;20039;-66
2021/04/04 06:11:47;;;;;;;33.40;10.75;;;0.50;99.90;;;;;;4923497;29;20279;-67
2021/04/04 06:14:30;;;;;;;26.40;9.00;;;0.70;99.90;;;;;;4941088;29;20054;-66
2021/04/04 06:17:13;;;;;;;29.60;9.73;;;1.00;99.90;;;;;;4953476;29;20055;-68
2021/04/04 06:20:06;;;;;;;32.00;10.35;;;1.10;99.90;;;;;;4951749;29;20052;-66
2021/04/04 06:22:40;;;;;;;23.17;9.27;;;1.50;99.90;;;;;;4952569;29;20047;-68
2021/04/04 06:25:18;;;;;;;30.48;10.57;;;1.70;99.90;;;;;;4953395;28;20051;-69
2021/04/04 06:28:02;;;;;;;28.15;9.65;;;2.00;99.90;;;;;;4953643;29;20039;-68
2021/04/04 06:31:09;;;;;;;28.00;9.98;;;2.30;99.90;;;;;;4953565;29;20459;-67
2021/04/04 06:33:40;;;;;;;30.58;10.43;;;2.60;99.90;;;;;;4942115;29;20126;-65
2021/04/04 06:36:25;;;;;;;29.50;10.73;;;2.80;99.90;;;;;;4944335;29;20050;-68
2021/04/04 06:39:32;;;;;;;26.83;10.50;;;3.00;99.90;;;;;;4953151;28;20117;-68
2021/04/04 06:42:08;;;;;;;24.30;8.88;;;3.10;99.90;;;;;;4952639;28;20443;-68
2021/04/04 06:45:03;;;;;;;34.78;10.32;;;3.40;99.90;;;;;;4934691;29;20316;-67
2021/04/04 06:48:00;;;;;;;37.45;10.85;;;3.50;99.90;;;;;;4953027;29;20062;-67
2021/04/04 06:50:30;;;;;;;35.55;10.15;;;3.60;99.90;;;;;;4952355;29;20043;-67
2021/04/04 06:53:29;;;;;;;31.23;10.18;;;3.70;99.90;;;;;;4953046;29;20102;-67
2021/04/04 06:56:19;;;;;;;31.77;10.85;;;3.90;99.90;;;;;;4936235;29;20074;-67
2021/04/04 06:59:24;;;;;;;25.77;10.95;;;3.90;99.90;;;;;;4950056;28;20047;-67
2021/04/04 07:02:04;;;;;;;33.22;9.75;;;4.00;99.90;;;;;;4952019;28;20058;-67
2021/04/04 07:04:43;;;;;;;34.63;10.90;;;4.10;99.90;;;;;;4952991;28;20114;-67
2021/04/04 07:07:47;;;;;;;27.40;10.23;;;4.10;99.90;;;;;;4920838;29;20064;-67
2021/04/04 07:10:23;;;;;;;25.95;9.77;;;4.20;99.90;;;;;;4951737;29;20041;-67
2021/04/04 07:13:11;;;;;;;28.58;10.43;;;4.20;99.90;;;;;;4952448;29;20143;-67
2021/04/04 07:16:15;;;;;;;30.65;9.60;;;4.30;99.90;;;;;;4951204;28;20047;-66
2021/04/04 07:19:19;;;;;;;24.10;9.43;;;4.50;99.90;;;;;;4952033;28;20094;-67
2021/04/04 07:21:45;;;;;;;;;;;4.70;99.90;;;;;;4947170;28;20082;-67
2021/04/04 07:24:36;;;;;;;24.88;9.52;;;4.80;99.90;;;;;;4943029;29;19926;-67
2021/04/04 07:27:14;;;;;;;30.92;9.13;;;4.90;99.90;;;;;;4923064;29;20039;-67
2021/04/04 07:29:46;;;;;;;26.35;8.65;;;4.80;99.90;;;;;;4951494;29;20055;-67
2021/04/04 07:32:20;;;;;;;24.85;9.60;;;5.10;99.90;;;;;;4952730;29;20538;-67
2021/04/04 07:34:58;;;;;;;24.58;9.35;;;5.20;99.90;;;;;;4950512;28;20050;-66
2021/04/04 07:37:52;;;;;;;26.85;9.52;;;5.40;99.90;;;;;;4953417;29;20043;-67
2021/04/04 07:40:25;;;;;;;29.50;9.55;;;5.40;99.90;;;;;;4943657;29;20043;-67
2021/04/04 07:43:07;;;;;;;22.00;8.55;;;5.50;99.90;;;;;;4951828;28;20050;-66
2021/04/04 07:46:03;;;;;;;23.27;9.30;;;5.40;99.90;;;;;;4951957;28;20054;-67
2021/04/04 07:48:32;;;;;;;27.13;8.98;;;5.60;99.90;;;;;;4953214;28;20171;-67
2021/04/04 07:51:12;;;;;;;20.30;8.68;;;5.60;99.90;;;;;;4950101;29;20518;-66
2021/04/04 07:53:45;;;;;;;25.63;8.05;;;5.90;99.90;;;;;;4934651;29;20055;-69
2021/04/04 07:56:23;;;;;;;21.77;8.65;;;6.30;99.90;;;;;;4951422;28;20175;-67
2021/04/04 07:59:21;;;;;;;19.88;8.30;;;6.80;99.90;;;;;;4955102;28;20078;-67
2021/04/04 08:01:55;;;;;;;24.58;8.45;;;7.20;99.90;;;;;;4939149;29;20050;-67
2021/04/04 08:04:27;;;;;;;22.00;8.85;;;7.80;99.90;;;;;;4946851;28;20077;-67
2021/04/04 08:07:03;;;;;;;21.75;7.47;;;8.10;99.90;;;;;;4951291;28;20047;-68
2021/04/04 08:09:35;;;;;;;21.20;7.95;;;8.20;99.90;;;;;;4934185;29;20492;-67
2021/04/04 08:12:43;;;;;;;20.20;8.05;;;8.60;99.90;;;;;;4948026;28;20135;-67
2021/04/04 08:15:15;;;;;;;21.45;8.02;;;8.70;99.90;;;;;;4934559;28;20047;-68
2021/04/04 08:17:41;;;;;;;18.23;8.00;;;9.10;99.90;;;;;;4951778;29;20495;-67
2021/04/04 08:20:28;;;;;;;21.38;8.13;;;9.50;99.90;;;;;;4934263;29;20086;-68
2021/04/04 08:23:05;;;;;;;22.92;7.93;;;9.50;99.90;;;;;;4933154;29;20054;-68
2021/04/04 08:25:47;;;;;;;17.35;7.30;;;9.70;99.90;;;;;;4951616;29;20055;-67
2021/04/04 08:28:21;;;;;;;22.33;7.82;;;10.00;99.90;;;;;;4942276;29;20051;-68
2021/04/04 08:30:54;;;;;;;17.73;7.60;;;10.40;99.90;;;;;;4935685;29;20069;-67
2021/04/04 08:33:25;;;;;;;22.00;7.60;;;10.60;99.90;;;;;;4954223;28;20047;-68
2021/04/04 08:35:55;;;;;;;19.95;7.25;;;10.30;99.90;;;;;;4940151;29;20106;-68
2021/04/04 08:38:35;;;;;;;21.00;7.85;;;10.60;99.90;;;;;;4957224;28;20066;-68
2021/04/04 08:41:04;;;;;;;25.58;8.23;;;10.90;99.90;;;;;;4963529;28;20051;-67
2021/04/04 08:43:30;;;;;;;20.25;8.00;;;10.70;99.90;;;;;;4956861;29;20114;-68
2021/04/04 08:46:11;;;;;;;18.70;7.70;;;10.80;99.90;;;;;;4954177;28;20497;-67
2021/04/04 08:48:39;;;;;;;18.55;7.60;;;10.70;99.90;;;;;;4958562;29;20051;-67
2021/04/04 08:51:11;;;;;;;21.40;7.38;;;11.20;99.90;;;;;;4959623;28;20046;-68
2021/04/04 08:53:44;;;;;;;20.05;7.38;;;11.10;99.90;;;;;;4958211;29;20036;-68
2021/04/04 08:56:13;;;;;;;18.20;7.55;;;11.40;99.90;;;;;;4958603;28;20386;-69
2021/04/04 08:58:43;;;;;;;15.52;7.22;;;11.80;99.90;;;;;;4960900;28;20133;-68
2021/04/04 09:01:24;;;;;;;18.48;7.70;;;12.20;99.90;;;;;;4958317;28;20039;-68
2021/04/04 09:03:56;;;;;;;18.05;7.45;;;11.90;99.90;;;;;;4958848;29;20193;-67
2021/04/04 09:06:23;;;;;;;23.42;7.80;;;12.10;99.90;;;;;;4953554;28;20047;-67
2021/04/04 09:08:51;;;;;;;19.45;6.90;;;11.90;99.90;;;;;;4943444;28;20080;-68
2021/04/04 09:11:19;;;;;;;24.02;8.25;;;12.20;99.90;;;;;;4956980;29;20106;-69
2021/04/04 09:13:46;;;;;;;22.38;8.07;;;12.00;99.90;;;;;;4956348;29;20047;-68
2021/04/04 09:16:14;;;;;;;20.70;7.57;;;12.40;99.90;;;;;;4953400;28;20335;-68
2021/04/04 09:18:49;;;;;;;18.30;8.30;;;13.10;99.40;;;;;;4929750;29;20102;-67
2021/04/04 09:21:20;;;;;;;19.77;8.10;;;13.20;98.30;;;;;;4957064;28;20061;-65
2021/04/04 09:23:49;;;;;;;18.45;7.20;;;13.40;98.10;;;;;;4941292;28;20051;-68
2021/04/04 09:26:22;;;;;;;18.63;6.82;;;13.70;97.30;;;;;;4955092;28;20122;-66
2021/04/04 09:28:51;;;;;;;19.98;7.43;;;14.10;95.90;;;;;;4956816;28;20107;-68
2021/04/04 09:31:22;;;;;;;20.77;7.05;;;13.80;94.90;;;;;;4957267;29;20459;-69
2021/04/04 09:34:17;;;;;;;16.47;7.37;;;14.40;94.20;;;;;;4954309;28;20040;-66
2021/04/04 09:36:46;;;;;;;15.90;6.15;;;14.90;94.60;;;;;;4951252;28;20166;-69
2021/04/04 09:39:23;;;;;;;19.10;7.25;;;15.50;91.60;;;;;;4952639;28;20043;-68
2021/04/04 09:41:50;;;;;;;17.98;7.30;;;14.70;90.80;;;;;;4951244;28;20074;-66
2021/04/04 09:44:16;;;;;;;18.08;6.97;;;13.60;91.10;;;;;;4954776;28;20050;-67
2021/04/04 09:46:51;;;;;;;20.63;7.40;;;13.40;91.40;;;;;;4935542;29;20393;-66
2021/04/04 09:49:46;;;;;;;13.82;6.40;;;12.90;91.10;;;;;;4952439;28;20090;-67
2021/04/04 09:52:27;;;;;;;18.83;6.47;;;13.70;91.10;;;;;;4934113;29;20051;-67
2021/04/04 09:55:10;;;;;;;18.65;7.38;;;14.10;90.20;;;;;;4954138;29;20047;-67
2021/04/04 09:58:29;;;;;;;17.65;6.72;;;14.00;90.10;;;;;;4949386;28;20113;-66
2021/04/04 10:01:00;;;;;;;18.30;7.45;;;13.70;88.90;;;;;;4953419;29;20483;-66
2021/04/04 10:03:27;;;;;;;14.70;6.07;;;14.10;88.90;;;;;;4952373;29;20275;-67
2021/04/04 10:05:53;;;;;;;14.02;5.95;;;15.00;85.90;;;;;;4935164;29;20194;-67
2021/04/04 10:08:25;;;;;;;14.27;5.18;;;15.70;82.70;;;;;;4952452;28;20095;-66
2021/04/04 10:10:54;;;;;;;13.43;5.53;;;15.80;80.00;;;;;;4951751;28;20127;-67
2021/04/04 10:13:30;;;;;;;17.50;6.45;;;16.30;73.60;;;;;;4953022;28;20265;-67
2021/04/04 10:15:58;;;;;;;16.40;5.57;;;15.70;70.70;;;;;;4935463;28;20047;-66
2021/04/04 10:18:26;;;;;;;10.65;4.57;;;15.30;72.40;;;;;;4954633;29;20825;-66
2021/04/04 10:20:58;;;;;;;14.43;6.32;;;16.00;71.90;;;;;;4952705;28;20055;-67
2021/04/04 10:23:33;;;;;;;17.48;5.90;;;16.50;69.60;;;;;;4936279;29;20055;-66
2021/04/04 10:26:09;;;;;;;18.77;6.38;;;16.60;69.50;;;;;;4953785;28;20043;-66
2021/04/04 10:29:01;;;;;;;12.80;5.35;;;16.50;68.50;;;;;;4951591;29;20514;-67
2021/04/04 10:31:49;;;;;;;16.38;5.45;;;16.70;66.20;;;;;;4951717;28;20039;-66
2021/04/04 10:34:17;;;;;;;18.45;5.63;;;17.20;65.30;;;;;;4935665;28;20054;-66
2021/04/04 10:37:00;;;;;;;13.80;5.68;;;17.80;64.40;;;;;;4949539;29;20051;-67
2021/04/04 10:39:27;;;;;;;12.43;4.95;;;18.00;61.00;;;;;;4939883;29;20063;-66
2021/04/04 10:41:53;;;;;;;14.68;4.97;;;17.80;58.10;;;;;;4932134;29;20043;-66
2021/04/04 10:44:24;;;;;;;12.07;4.38;;;17.50;58.00;;;;;;4933205;28;20039;-66
2021/04/04 10:46:51;;;;;;;10.60;4.35;;;17.60;58.50;;;;;;4943530;28;20043;-66
2021/04/04 10:49:18;;;;;;;12.85;4.55;;;17.30;57.20;;;;;;4945277;28;20117;-67
2021/04/04 10:51:45;;;;;;;12.93;4.25;;;16.90;56.00;;;;;;4945306;28;20102;-66
2021/04/04 10:54:12;;;;;;;10.68;4.60;;;16.60;57.90;;;;;;4946877;28;20074;-66
2021/04/04 10:56:39;;;;;;;13.07;5.43;;;16.20;61.50;;;;;;4950882;28;20114;-66
2021/04/04 10:59:06;;;;;;;12.95;4.95;;;15.70;61.10;;;;;;4952629;29;20054;-66
2021/04/04 11:01:33;;;;;;;14.98;5.65;;;15.00;60.30;;;;;;4952062;28;20098;-66
2021/04/04 11:04:01;;;;;;;19.33;5.60;;;14.00;62.20;;;;;;4945163;28;20051;-66
2021/04/04 11:06:28;;;;;;;16.75;6.32;;;14.10;63.10;;;;;;4953514;28;20051;-66
2021/04/04 11:08:54;;;;;;;13.80;5.93;;;15.00;65.40;;;;;;4950399;28;20113;-66
2021/04/04 11:11:21;;;;;;;11.68;5.57;;;15.10;64.30;;;;;;4950563;28;20047;-67
2021/04/04 11:13:53;;;;;;;16.25;5.30;;;14.80;64.10;;;;;;4947858;28;20055;-66
2021/04/04 11:16:21;;;;;;;15.68;5.43;;;14.80;65.20;;;;;;4946140;28;20102;-66
2021/04/04 11:18:50;;;;;;;14.90;6.40;;;14.50;65.00;;;;;;4945947;28;20050;-66
2021/04/04 11:21:38;;;;;;;16.67;6.35;;;14.30;66.50;;;;;;4947512;28;20096;-66
2021/04/04 11:24:15;;;;;;;14.60;6.18;;;13.50;65.80;;;;;;4947763;28;20043;-68
2021/04/04 11:26:51;;;;;;;16.02;6.20;;;13.10;67.20;;;;;;4946239;28;20054;-69
2021/04/04 11:29:20;;;;;;;15.95;6.13;;;12.90;71.90;;;;;;4946314;28;20067;-68
2021/04/04 11:31:49;;;;;;;18.45;6.47;;;13.10;70.20;;;;;;4950682;29;20190;-68
2021/04/04 11:34:32;;;;;;;13.95;5.20;;;13.30;68.30;;;;;;4925789;28;20401;-69
2021/04/04 11:36:59;;;;;;;;;;;13.60;68.50;;;;;;4948213;28;20094;-68
2021/04/04 11:39:26;;;;;;;18.13;5.93;;;13.70;69.50;;;;;;4946389;28;19985;-68
2021/04/04 11:42:02;;;;;;;15.50;6.53;;;13.30;68.10;;;;;;4946769;28;21459;-69
2021/04/04 11:44:38;;;;;;;17.17;6.35;;;12.80;69.80;;;;;;4946262;28;20819;-68
2021/04/04 11:47:16;;;;;;;20.40;6.15;;;12.70;71.20;;;;;;4943688;29;20070;-68
2021/04/04 11:49:46;;;;;;;18.95;6.35;;;12.50;72.30;;;;;;4946014;28;20051;-65
2021/04/04 11:52:12;;;;;;;19.00;7.07;;;12.80;72.60;;;;;;4949187;28;20043;-68
2021/04/04 11:54:54;;;;;;;14.65;6.10;;;12.80;71.80;;;;;;4950720;28;20039;-68
2021/04/04 11:57:32;;;;;;;13.48;6.13;;;12.90;71.90;;;;;;4934624;29;20071;-68
2021/04/04 12:00:03;;;;;;;19.27;6.20;;;12.80;71.70;;;;;;4938994;28;20047;-68
2021/04/04 12:02:31;;;;;;;19.45;5.70;;;13.10;72.70;;;;;;4947492;29;20103;-68
2021/04/04 12:05:09;;;;;;;15.38;7.03;;;13.50;70.50;;;;;;4933604;29;20091;-68
2021/04/04 12:07:45;;;;;;;16.13;6.25;;;13.80;73.00;;;;;;4950424;28;20554;-68
2021/04/04 12:10:23;;;;;;;17.65;5.75;;;14.00;72.50;;;;;;4934166;29;20066;-68
2021/04/04 12:12:50;;;;;;;16.92;5.78;;;13.90;71.50;;;;;;4951714;28;20154;-69
2021/04/04 12:15:21;;;;;;;15.23;5.78;;;14.10;68.90;;;;;;4951388;28;20051;-68
2021/04/04 12:17:54;;;;;;;17.63;5.72;;;14.20;68.70;;;;;;4951947;29;20051;-66
2021/04/04 12:20:32;;;;;;;;;;;13.50;70.60;;;;;;4951121;29;20047;-69
2021/04/04 12:23:00;;;;;;;13.48;5.88;;;13.50;70.30;;;;;;4951008;28;19926;-68
2021/04/04 12:25:31;;;;;;;22.67;6.88;;;13.50;70.40;;;;;;4950327;28;20070;-68
2021/04/04 12:27:59;;;;;;;16.02;5.82;;;13.20;70.60;;;;;;4952439;29;20043;-66
2021/04/04 12:30:32;;;;;;;17.65;5.65;;;13.70;72.20;;;;;;4951714;29;20433;-67
2021/04/04 12:33:04;;;;;;;13.80;5.57;;;14.20;71.80;;;;;;4952151;29;20055;-68
2021/04/04 12:35:32;;;;;;;16.88;6.10;;;14.40;70.60;;;;;;4950965;28;20124;-68
2021/04/04 12:38:05;;;;;;;15.07;6.60;;;14.50;67.60;;;;;;4952033;29;20543;-67
2021/04/04 12:40:32;;;;;;;16.23;6.68;;;14.40;68.10;;;;;;4950699;28;20047;-67
2021/04/04 12:43:03;;;;;;;19.23;5.95;;;14.40;71.20;;;;;;4952199;29;20055;-68
2021/04/04 12:45:35;;;;;;;14.05;5.63;;;14.60;68.20;;;;;;4933474;28;20058;-67
2021/04/04 12:48:11;;;;;;;15.32;5.80;;;15.00;66.00;;;;;;4951197;28;20147;-68
2021/04/04 12:50:37;;;;;;;14.32;5.25;;;15.50;66.60;;;;;;4934668;29;20051;-68
2021/04/04 12:53:04;;;;;;;19.05;6.15;;;15.30;66.40;;;;;;4950946;28;20388;-68
2021/04/04 12:55:32;;;;;;;14.73;5.30;;;15.00;66.80;;;;;;4950823;29;20039;-68
2021/04/04 12:58:00;;;;;;;18.15;6.82;;;14.70;67.30;;;;;;4952203;29;20106;-67
2021/04/04 13:00:38;;;;;;;16.42;6.15;;;14.10;67.50;;;;;;4950666;28;20043;-67
2021/04/04 13:03:11;;;;;;;17.95;6.00;;;13.40;68.40;;;;;;4934891;29;20113;-67
2021/04/04 13:05:41;;;;;;;13.98;5.63;;;14.40;68.60;;;;;;4950087;28;20452;-68
2021/04/04 13:08:21;;;;;;;12.15;4.60;;;16.50;67.00;;;;;;4953679;28;20043;-67
2021/04/04 13:11:06;;;;;;;18.33;6.03;;;18.90;64.20;;;;;;4952200;28;20059;-66
2021/04/04 13:13:34;;;;;;;13.90;5.65;;;19.90;56.30;;;;;;4952233;29;20469;-66
2021/04/04 13:16:06;;;;;;;22.15;5.63;;;20.70;54.00;;;;;;4934623;29;20075;-66